createdAt,value
2019-05-20T00:03:05.408Z,19.00
2019-05-20T00:07:09.991Z,20.17
2019-05-20T00:11:14.217Z,19.90
2019-05-20T00:15:18.521Z,19.37
2019-05-20T00:19:22.743Z,25.63
2019-05-20T00:23:26.964Z,20.03
2019-05-20T00:27:31.187Z,21.47
2019-05-20T00:31:35.402Z,23.67
2019-05-20T00:35:39.621Z,26.40
2019-05-20T00:39:43.856Z,23.13
2019-05-20T00:43:48.051Z,23.57
2019-05-20T00:47:52.470Z,22.57
2019-05-20T00:51:56.697Z,26.23
2019-05-20T00:56:00.911Z,21.27
2019-05-20T01:00:06.288Z,18.83
2019-05-20T01:04:10.481Z,19.07
2019-05-20T01:08:14.703Z,17.20
2019-05-20T01:12:18.943Z,21.77
2019-05-20T01:16:23.248Z,16.77
2019-05-20T01:20:27.567Z,19.50
2019-05-20T01:24:31.972Z,19.57
2019-05-20T01:28:36.193Z,21.40
2019-05-20T01:32:40.406Z,19.63
2019-05-20T01:36:44.627Z,21.13
2019-05-20T01:40:48.842Z,17.10
2019-05-20T01:44:53.104Z,16.93
2019-05-20T01:48:57.325Z,20.57
2019-05-20T01:53:01.564Z,19.13
2019-05-20T01:57:05.796Z,18.83
2019-05-20T02:01:10.047Z,23.53
2019-05-20T02:05:14.371Z,24.97
2019-05-20T02:09:18.572Z,28.03
2019-05-20T02:13:24.440Z,26.10
2019-05-20T02:17:28.734Z,26.90
2019-05-20T02:21:32.950Z,27.20
2019-05-20T02:25:37.158Z,25.20
2019-05-20T02:29:41.376Z,23.77
2019-05-20T02:33:51.462Z,26.10
2019-05-20T02:37:51.470Z,25.60
2019-05-20T02:41:55.688Z,25.43
2019-05-20T02:45:59.907Z,21.30
2019-05-20T02:50:04.165Z,23.37
2019-05-20T02:54:08.384Z,20.53
2019-05-20T02:58:12.615Z,19.10
2019-05-20T03:02:16.826Z,21.67
2019-05-20T03:06:21.043Z,23.43
2019-05-20T03:10:25.264Z,23.13
2019-05-20T03:14:29.535Z,24.27
2019-05-20T03:18:33.763Z,26.07
2019-05-20T03:22:37.994Z,22.90
2019-05-20T03:26:42.223Z,28.43
2019-05-20T03:30:46.413Z,24.57
2019-05-20T03:34:58.676Z,27.27
2019-05-20T03:38:56.491Z,22.03
2019-05-20T03:43:00.712Z,21.23
2019-05-20T03:47:04.963Z,22.80
2019-05-20T03:51:09.172Z,23.37
2019-05-20T03:55:13.393Z,21.83
2019-05-20T03:59:17.652Z,23.80
2019-05-20T04:03:21.881Z,25.13
2019-05-20T04:07:26.123Z,35.40
2019-05-20T04:11:30.389Z,32.80
2019-05-20T04:15:34.612Z,37.33
2019-05-20T04:19:38.827Z,38.20
2019-05-20T04:23:43.138Z,39.33
2019-05-20T04:27:47.431Z,54.17
2019-05-20T04:31:51.932Z,55.57
2019-05-20T04:35:56.213Z,52.20
2019-05-20T04:40:00.445Z,82.27
2019-05-20T04:44:04.688Z,52.90
2019-05-20T04:48:13.174Z,89.77
2019-05-20T04:52:14.887Z,88.60
2019-05-20T04:56:19.176Z,80.20
2019-05-20T05:00:58.393Z,74.23
2019-05-20T05:05:02.944Z,90.57
2019-05-20T05:09:08.286Z,68.37
2019-05-20T05:13:12.479Z,59.87
2019-05-20T05:17:16.736Z,108.80
2019-05-20T05:21:20.947Z,83.47
2019-05-20T05:25:25.203Z,81.00
2019-05-20T05:29:29.418Z,87.17
2019-05-20T05:33:33.640Z,87.93
2019-05-20T05:37:37.849Z,93.93
2019-05-20T05:41:42.060Z,85.93
2019-05-20T05:45:46.306Z,85.00
2019-05-20T05:49:50.534Z,136.95
2019-05-20T05:53:54.758Z,85.30
2019-05-20T05:57:58.999Z,72.93
2019-05-20T06:02:03.267Z,90.05
2019-05-20T06:06:13.140Z,78.93
2019-05-20T06:10:14.899Z,73.00
2019-05-20T06:14:19.138Z,64.10
2019-05-20T06:18:23.431Z,57.63
2019-05-20T06:22:27.635Z,87.07
2019-05-20T06:26:31.998Z,72.30
2019-05-20T06:30:44.200Z,45.70
2019-05-20T06:34:48.441Z,50.47
2019-05-20T06:39:17.785Z,47.63
2019-05-20T06:43:21.971Z,58.90
2019-05-20T06:47:26.227Z,45.70
2019-05-20T06:51:30.441Z,51.58
2019-05-20T06:55:34.806Z,59.40
2019-05-20T06:59:39.049Z,50.17
2019-05-20T07:03:43.283Z,41.70
2019-05-20T07:07:47.484Z,42.03
2019-05-20T07:11:53.033Z,42.33
2019-05-20T07:15:57.566Z,45.47
2019-05-20T07:20:01.783Z,47.80
2019-05-20T07:24:06.088Z,43.98
2019-05-20T07:28:10.290Z,44.80
2019-05-20T07:32:14.511Z,43.67
2019-05-20T07:36:18.730Z,47.73
2019-05-20T07:40:32.041Z,47.23
2019-05-20T07:44:36.283Z,50.43
2019-05-20T07:48:41.338Z,49.30
2019-05-20T07:52:45.935Z,50.33
2019-05-20T07:56:53.552Z,49.77
2019-05-20T08:00:57.763Z,50.63
2019-05-20T08:05:02.198Z,50.90
2019-05-20T08:09:07.643Z,48.08
2019-05-20T08:13:11.860Z,44.77
2019-05-20T08:17:16.071Z,49.67
2019-05-20T08:21:20.313Z,52.38
2019-05-20T08:25:24.545Z,50.57
2019-05-20T08:29:28.744Z,44.77
2019-05-20T08:33:32.969Z,49.33
2019-05-20T08:37:45.335Z,46.97
2019-05-20T08:41:43.130Z,44.40
2019-05-20T08:45:47.403Z,44.67
2019-05-20T08:49:51.933Z,42.30
2019-05-20T08:53:56.429Z,44.38
2019-05-20T08:58:00.652Z,43.95
2019-05-20T09:02:04.866Z,44.90
2019-05-20T09:06:09.088Z,47.13
2019-05-20T09:10:13.512Z,51.87
2019-05-20T09:14:17.726Z,53.00
2019-05-20T09:18:21.959Z,53.87
2019-05-20T09:22:26.190Z,53.50
2019-05-20T09:26:30.399Z,54.60
2019-05-20T09:30:34.596Z,59.73
2019-05-20T09:34:38.815Z,53.00
2019-05-20T09:38:43.067Z,48.63
2019-05-20T09:42:47.283Z,47.53
2019-05-20T09:46:51.624Z,44.73
2019-05-20T09:50:55.848Z,44.57
2019-05-20T09:55:00.107Z,44.47
2019-05-20T09:59:04.356Z,43.43
2019-05-20T10:03:08.589Z,45.50
2019-05-20T10:07:12.812Z,42.30
2019-05-20T10:11:17.040Z,39.57
2019-05-20T10:15:21.444Z,38.47
2019-05-20T10:19:25.699Z,34.00
2019-05-20T10:23:29.887Z,34.10
2019-05-20T10:27:34.107Z,35.30
2019-05-20T10:31:38.326Z,32.97
2019-05-20T10:35:42.546Z,35.70
2019-05-20T10:39:46.746Z,32.53
2019-05-20T10:43:50.980Z,31.17
2019-05-20T10:47:55.224Z,31.62
2019-05-20T10:51:59.455Z,30.90
2019-05-20T10:56:03.711Z,30.05
2019-05-20T11:00:09.089Z,29.67
2019-05-20T11:04:13.316Z,30.88
2019-05-20T11:08:17.552Z,31.33
2019-05-20T11:12:21.791Z,30.20
2019-05-20T11:16:25.990Z,32.35
2019-05-20T11:20:30.254Z,30.85
2019-05-20T11:24:34.295Z,30.90
2019-05-20T11:28:38.515Z,30.52
2019-05-20T11:32:43.035Z,32.95
2019-05-20T11:36:47.361Z,31.33
2019-05-20T11:40:51.591Z,33.42
2019-05-20T11:44:55.839Z,33.05
2019-05-20T11:49:00.056Z,34.92
2019-05-20T11:53:04.362Z,34.48
2019-05-20T11:57:09.197Z,35.13
2019-05-20T12:01:13.495Z,35.40
2019-05-20T12:05:18.353Z,36.25
2019-05-20T12:09:22.563Z,36.58
2019-05-20T12:13:26.912Z,35.30
2019-05-20T12:17:31.132Z,36.63
2019-05-20T12:21:35.326Z,36.40
2019-05-20T12:25:39.561Z,34.27
2019-05-20T12:29:43.771Z,34.67
2019-05-20T12:33:48.000Z,31.75
2019-05-20T12:37:52.219Z,23.92
2019-05-20T12:41:56.448Z,26.37
2019-05-20T12:46:00.703Z,25.08
2019-05-20T12:50:05.356Z,23.67
2019-05-20T12:54:09.580Z,24.37
2019-05-20T12:58:13.835Z,20.35
2019-05-20T13:02:18.073Z,22.17
2019-05-20T13:06:22.392Z,23.02
2019-05-20T13:10:31.442Z,20.55
2019-05-20T13:14:32.624Z,21.40
2019-05-20T13:18:36.921Z,20.00
2019-05-20T13:22:41.122Z,21.80
2019-05-20T13:26:45.628Z,20.30
2019-05-20T13:30:50.228Z,22.65
2019-05-20T13:34:54.700Z,21.65
2019-05-20T13:38:58.939Z,20.62
2019-05-20T13:43:03.145Z,19.60
2019-05-20T13:47:07.443Z,20.12
2019-05-20T13:51:11.659Z,18.70
2019-05-20T13:55:15.936Z,17.00
2019-05-20T13:59:20.184Z,21.87
2019-05-20T14:03:24.405Z,18.32
2019-05-20T14:07:28.730Z,17.85
2019-05-20T14:11:34.881Z,15.63
2019-05-20T14:15:38.959Z,14.95
2019-05-20T14:19:43.174Z,15.58
2019-05-20T14:23:47.422Z,13.43
2019-05-20T14:27:51.646Z,12.93
2019-05-20T14:31:55.968Z,13.03
2019-05-20T14:36:00.214Z,13.43
2019-05-20T14:40:04.804Z,12.70
2019-05-20T14:44:09.062Z,11.68
2019-05-20T14:48:13.278Z,12.05
2019-05-20T14:52:17.538Z,11.60
2019-05-20T14:56:21.791Z,11.95
2019-05-20T15:00:26.875Z,10.90
2019-05-20T15:04:31.098Z,11.15
2019-05-20T15:08:35.418Z,10.70
2019-05-20T15:12:39.630Z,10.72
2019-05-20T15:16:43.859Z,10.50
2019-05-20T15:20:48.087Z,12.37
2019-05-20T15:24:52.408Z,10.95
2019-05-20T15:28:56.627Z,11.48
2019-05-20T15:33:00.856Z,15.98
2019-05-20T15:37:05.219Z,12.00
2019-05-20T15:41:09.521Z,10.93
2019-05-20T15:45:13.954Z,11.18
2019-05-20T15:49:18.353Z,11.12
2019-05-20T15:53:22.678Z,10.95
2019-05-20T15:57:26.958Z,10.60
2019-05-20T16:01:31.200Z,10.48
2019-05-20T16:05:35.412Z,10.20
2019-05-20T16:09:39.619Z,10.60
2019-05-20T16:13:43.859Z,11.70
2019-05-20T16:17:48.766Z,11.48
2019-05-20T16:21:53.230Z,11.28
2019-05-20T16:25:57.497Z,12.15
2019-05-20T16:30:06.710Z,10.78
2019-05-20T16:34:07.604Z,11.30
2019-05-20T16:38:11.829Z,11.80
2019-05-20T16:42:16.041Z,11.00
2019-05-20T16:46:20.276Z,10.77
2019-05-20T16:50:24.505Z,10.57
2019-05-20T16:54:28.808Z,10.68
2019-05-20T16:58:33.019Z,9.90
2019-05-20T17:02:37.333Z,9.67
2019-05-20T17:06:41.487Z,10.53
2019-05-20T17:10:45.708Z,11.67
2019-05-20T17:14:49.924Z,13.20
2019-05-20T17:18:59.959Z,13.50
2019-05-20T17:23:04.183Z,14.20
2019-05-20T17:27:08.468Z,22.47
2019-05-20T17:31:12.679Z,16.62
2019-05-20T17:35:16.879Z,18.92
2019-05-20T17:39:21.098Z,20.00
2019-05-20T17:43:25.345Z,21.75
2019-05-20T17:47:29.588Z,23.05
2019-05-20T17:51:33.806Z,24.10
2019-05-20T17:55:38.018Z,24.63
2019-05-20T17:59:42.310Z,25.70
2019-05-20T18:03:46.564Z,26.97
2019-05-20T18:07:50.787Z,25.67
2019-05-20T18:11:55.096Z,27.50
2019-05-20T18:15:59.295Z,28.03
2019-05-20T18:20:04.159Z,27.47
2019-05-20T18:24:08.372Z,26.00
2019-05-20T18:28:12.615Z,26.30
2019-05-20T18:32:16.906Z,26.90
2019-05-20T18:36:21.137Z,25.03
2019-05-20T18:40:25.347Z,25.27
2019-05-20T18:44:29.593Z,25.70
2019-05-20T18:48:33.816Z,27.57
2019-05-20T18:52:38.034Z,23.93
2019-05-20T18:56:42.465Z,24.90
2019-05-20T19:00:46.759Z,24.93
2019-05-20T19:04:51.023Z,24.07
2019-05-20T19:08:55.358Z,28.97
2019-05-20T19:12:59.589Z,25.70
2019-05-20T19:17:03.800Z,26.20
2019-05-20T19:21:08.000Z,24.40
2019-05-20T19:25:12.432Z,24.17
2019-05-20T19:29:16.712Z,25.33
2019-05-20T19:33:21.019Z,36.37
2019-05-20T19:37:25.323Z,32.40
2019-05-20T19:41:29.529Z,30.80
2019-05-20T19:45:33.780Z,23.00
2019-05-20T19:49:38.007Z,24.20
2019-05-20T19:53:42.230Z,26.87
2019-05-20T19:57:46.456Z,30.00
2019-05-20T20:01:50.660Z,29.83
2019-05-20T20:05:54.891Z,28.37
2019-05-20T20:09:58.552Z,32.73
2019-05-20T20:14:02.809Z,30.80
2019-05-20T20:18:07.065Z,28.50
2019-05-20T20:22:11.278Z,31.97
2019-05-20T20:26:15.577Z,26.37
2019-05-20T20:30:19.817Z,27.10
2019-05-20T20:34:26.218Z,25.27
2019-05-20T20:38:30.431Z,28.27
2019-05-20T20:42:34.708Z,27.27
2019-05-20T20:46:40.697Z,25.60
2019-05-20T20:50:44.861Z,25.53
2019-05-20T20:54:49.091Z,26.43
2019-05-20T20:58:53.400Z,27.80
2019-05-20T21:02:57.619Z,26.83
2019-05-20T21:07:01.856Z,29.17
2019-05-20T21:11:06.246Z,24.33
2019-05-20T21:15:11.143Z,27.67
2019-05-20T21:19:15.388Z,23.60
2019-05-20T21:23:19.611Z,26.30
2019-05-20T21:27:23.836Z,29.57
2019-05-20T21:31:28.082Z,28.07
2019-05-20T21:35:32.429Z,36.17
2019-05-20T21:39:36.653Z,33.70
2019-05-20T21:43:40.877Z,28.00
2019-05-20T21:47:49.529Z,27.07
2019-05-20T21:51:53.687Z,27.80
2019-05-20T21:55:57.895Z,24.00
2019-05-20T22:00:02.115Z,29.70
2019-05-20T22:04:06.407Z,30.77
2019-05-20T22:08:10.607Z,30.00
2019-05-20T22:12:14.830Z,25.27
2019-05-20T22:16:19.066Z,29.30
2019-05-20T22:20:23.278Z,30.70
2019-05-20T22:24:27.582Z,30.33
2019-05-20T22:28:31.772Z,27.07
2019-05-20T22:32:36.004Z,28.43
2019-05-20T22:36:40.230Z,28.40
2019-05-20T22:40:44.521Z,28.57
2019-05-20T22:44:48.770Z,29.87
2019-05-20T22:48:52.983Z,28.77
2019-05-20T22:52:57.204Z,30.30
2019-05-20T22:57:01.450Z,30.40
2019-05-20T23:01:05.662Z,31.30
2019-05-20T23:05:09.934Z,31.63
2019-05-20T23:09:14.932Z,32.50
2019-05-20T23:13:19.371Z,29.57
2019-05-20T23:17:23.611Z,31.70
2019-05-20T23:21:27.812Z,32.47
2019-05-20T23:25:32.290Z,31.40
2019-05-20T23:29:36.494Z,32.73
2019-05-20T23:33:40.708Z,31.50
2019-05-20T23:37:44.926Z,31.37
2019-05-20T23:41:49.147Z,32.87
2019-05-20T23:45:56.618Z,31.93
2019-05-20T23:50:00.836Z,29.37
2019-05-20T23:54:05.035Z,33.50
2019-05-20T23:58:09.272Z,37.60
